Time;durP1;ratioP1;P1;durP2;ratioP2;P2;SDS_P1;SDS_P2;PMS_P1;PMS_P2;Temp;Humidity;BMP_temperature;BMP_pressure;BME280_temperature;BME280_humidity;BME280_pressure;Samples;Min_cycle;Max_cycle;Signal;HPM_P1;HPM_P2
2021/08/25 00:01:33;;;;;;;7.95;3.45;;;10.90;89.40;;;;;;5037087;28;20036;-67
2021/08/25 00:03:59;;;;;;;6.05;2.78;;;10.80;89.50;;;;;;5033374;28;20255;-67
2021/08/25 00:06:25;;;;;;;12.70;3.20;;;10.70;89.60;;;;;;5042653;28;20061;-68
2021/08/25 00:08:50;;;;;;;8.77;4.15;;;10.70;89.40;;;;;;5031758;28;20041;-68
2021/08/25 00:11:16;;;;;;;9.70;3.65;;;10.70;89.50;;;;;;5031532;28;20116;-68
2021/08/25 00:13:42;;;;;;;6.32;3.22;;;10.70;90.50;;;;;;5028512;28;20085;-68
2021/08/25 00:16:08;;;;;;;8.48;3.55;;;10.70;89.90;;;;;;5036475;28;20165;-68
2021/08/25 00:18:33;;;;;;;11.43;3.70;;;10.60;90.30;;;;;;5033986;28;20093;-67
2021/08/25 00:21:00;;;;;;;7.45;3.53;;;10.60;91.40;;;;;;5027823;28;20034;-67
2021/08/25 00:23:26;;;;;;;8.70;3.58;;;10.60;92.50;;;;;;5034577;28;20116;-68
2021/08/25 00:25:56;;;;;;;9.07;3.00;;;10.50;91.70;;;;;;5034293;28;20388;-67
2021/08/25 00:28:22;;;;;;;5.70;3.30;;;10.60;91.60;;;;;;5037711;28;20052;-67
2021/08/25 00:30:48;;;;;;;9.48;3.30;;;10.50;91.40;;;;;;5029748;28;20029;-67
2021/08/25 00:33:14;;;;;;;6.03;3.30;;;10.50;90.90;;;;;;5034104;28;20044;-67
2021/08/25 00:35:39;;;;;;;7.10;3.42;;;10.40;90.40;;;;;;5030942;28;20029;-67
2021/08/25 00:38:05;;;;;;;10.40;3.30;;;10.40;90.90;;;;;;5035614;28;20017;-68
2021/08/25 00:40:31;;;;;;;7.25;2.88;;;10.40;90.90;;;;;;5033516;28;20032;-68
2021/08/25 00:43:07;;;;;;;6.68;3.08;;;10.40;91.40;;;;;;5035879;28;20058;-68
2021/08/25 00:45:53;;;;;;;8.40;3.30;;;10.40;92.00;;;;;;5030014;28;20029;-68
2021/08/25 00:48:18;;;;;;;9.30;2.92;;;10.30;92.40;;;;;;5032394;28;20037;-68
2021/08/25 00:50:52;;;;;;;6.30;2.95;;;10.30;92.20;;;;;;5039283;28;20116;-68
2021/08/25 00:53:24;;;;;;;7.75;3.35;;;10.30;92.60;;;;;;5027784;28;20110;-67
2021/08/25 00:55:51;;;;;;;6.68;2.97;;;10.30;92.70;;;;;;5032802;28;20033;-67
2021/08/25 00:58:17;;;;;;;6.85;3.15;;;10.30;93.00;;;;;;5031951;28;20104;-67
2021/08/25 01:00:53;;;;;;;5.70;3.38;;;10.20;93.10;;;;;;5035398;28;20393;-68
2021/08/25 01:03:27;;;;;;;5.80;3.13;;;10.20;93.70;;;;;;5026087;28;20025;-68
2021/08/25 01:05:56;;;;;;;5.45;2.58;;;10.10;93.90;;;;;;5031737;28;20033;-68
2021/08/25 01:08:23;;;;;;;7.32;3.05;;;10.10;93.30;;;;;;5034944;28;20483;-68
2021/08/25 01:10:48;;;;;;;8.38;3.50;;;10.10;92.70;;;;;;5032456;28;20087;-67
2021/08/25 01:13:14;;;;;;;6.45;3.15;;;10.10;92.40;;;;;;5026286;28;20025;-67
2021/08/25 01:15:42;;;;;;;7.93;3.35;;;10.10;93.10;;;;;;5034901;28;20033;-68
2021/08/25 01:18:16;;;;;;;8.25;3.75;;;10.00;93.40;;;;;;5031531;28;20124;-68
2021/08/25 01:20:45;;;;;;;7.22;3.40;;;10.00;93.80;;;;;;5031922;28;20090;-67
2021/08/25 01:23:15;;;;;;;5.28;3.22;;;9.90;93.60;;;;;;5026943;28;20020;-67
2021/08/25 01:25:42;;;;;;;8.75;3.28;;;9.90;92.80;;;;;;5032768;28;20148;-68
2021/08/25 01:28:09;;;;;;;6.57;3.33;;;9.90;93.30;;;;;;5023764;28;20060;-68
2021/08/25 01:30:40;;;;;;;18.30;4.10;;;9.80;93.80;;;;;;5035541;28;20036;-68
2021/08/25 01:33:06;;;;;;;;;;;9.80;93.80;;;;;;5022990;28;20128;-68
2021/08/25 01:35:37;;;;;;;7.07;3.20;;;9.80;93.30;;;;;;5028886;28;19923;-67
2021/08/25 01:38:07;;;;;;;6.47;3.47;;;9.80;93.50;;;;;;5035458;28;20037;-68
2021/08/25 01:40:36;;;;;;;6.57;3.47;;;9.70;93.10;;;;;;5029442;28;20105;-68
2021/08/25 01:43:03;;;;;;;5.57;3.15;;;9.80;93.10;;;;;;5028401;28;20508;-68
2021/08/25 01:45:28;;;;;;;7.90;3.63;;;9.70;93.00;;;;;;5035345;28;20379;-67
2021/08/25 01:47:54;;;;;;;7.82;3.38;;;9.60;92.20;;;;;;5025196;28;20037;-68
2021/08/25 01:50:20;;;;;;;6.53;3.35;;;9.60;91.90;;;;;;5035853;28;20136;-68
2021/08/25 01:52:46;;;;;;;6.07;3.70;;;9.60;92.20;;;;;;5037636;28;20094;-68
2021/08/25 01:55:11;;;;;;;6.32;3.40;;;9.60;92.20;;;;;;5038687;28;20036;-67
2021/08/25 01:57:37;;;;;;;8.00;3.83;;;9.60;92.50;;;;;;5030330;28;20087;-67
2021/08/25 02:00:04;;;;;;;9.73;3.38;;;9.50;92.30;;;;;;5029021;28;20395;-67
2021/08/25 02:02:30;;;;;;;8.60;3.85;;;9.50;92.10;;;;;;5024419;28;20025;-67
2021/08/25 02:04:55;;;;;;;5.88;3.65;;;9.50;92.00;;;;;;5022553;28;20032;-67
2021/08/25 02:07:21;;;;;;;13.68;4.13;;;9.50;92.60;;;;;;5031694;28;20153;-68
2021/08/25 02:09:47;;;;;;;8.15;4.30;;;9.50;93.20;;;;;;5037230;28;20180;-67
2021/08/25 02:12:12;;;;;;;9.05;3.95;;;9.50;93.10;;;;;;5034004;28;20033;-68
2021/08/25 02:14:38;;;;;;;8.13;4.38;;;9.40;92.70;;;;;;5037776;28;20160;-68
2021/08/25 02:17:06;;;;;;;9.35;3.88;;;9.50;91.90;;;;;;5037373;28;20447;-68
2021/08/25 02:19:32;;;;;;;6.90;3.92;;;9.50;92.50;;;;;;5033532;28;20039;-67
2021/08/25 02:21:58;;;;;;;7.75;4.07;;;9.40;92.80;;;;;;5036049;28;20021;-67
2021/08/25 02:24:24;;;;;;;8.68;4.38;;;9.50;93.30;;;;;;5034992;28;20132;-68
2021/08/25 02:26:49;;;;;;;8.65;4.18;;;9.40;93.60;;;;;;5043305;28;20032;-68
2021/08/25 02:29:15;;;;;;;11.20;5.25;;;9.40;93.40;;;;;;5035371;28;20070;-68
2021/08/25 02:31:40;;;;;;;9.80;5.72;;;9.40;93.60;;;;;;5037257;28;20107;-68
2021/08/25 02:34:06;;;;;;;9.18;5.22;;;9.50;93.70;;;;;;5025609;28;20487;-68
2021/08/25 02:36:32;;;;;;;8.15;5.25;;;9.50;93.60;;;;;;5038516;28;20145;-68
2021/08/25 02:38:57;;;;;;;9.75;5.97;;;9.50;93.70;;;;;;5033365;28;20029;-68
2021/08/25 02:41:23;;;;;;;15.57;7.88;;;9.60;94.10;;;;;;5037631;28;20021;-67
2021/08/25 02:43:49;;;;;;;15.68;9.48;;;9.60;94.50;;;;;;5032975;28;20400;-67
2021/08/25 02:46:15;;;;;;;11.60;8.15;;;9.60;94.80;;;;;;5032802;28;20102;-67
2021/08/25 02:48:41;;;;;;;18.25;10.23;;;9.60;94.90;;;;;;5036792;28;20021;-67
2021/08/25 02:51:07;;;;;;;18.58;12.65;;;9.60;95.10;;;;;;5042975;28;20036;-67
2021/08/25 02:53:33;;;;;;;16.98;10.10;;;9.80;95.40;;;;;;5035408;28;20079;-68
2021/08/25 02:55:59;;;;;;;18.40;10.73;;;9.80;95.40;;;;;;5034255;28;20029;-67
2021/08/25 02:58:24;;;;;;;20.48;12.63;;;9.80;95.20;;;;;;5026265;28;20193;-67
2021/08/25 03:00:50;;;;;;;25.10;14.63;;;9.80;95.20;;;;;;5035712;28;20360;-67
2021/08/25 03:03:16;;;;;;;22.90;13.70;;;9.80;95.50;;;;;;5026667;28;20035;-68
2021/08/25 03:05:41;;;;;;;19.58;13.57;;;9.80;95.70;;;;;;5034216;28;20177;-67
2021/08/25 03:08:07;;;;;;;21.42;13.80;;;9.80;95.70;;;;;;5033570;28;20500;-67
2021/08/25 03:10:32;;;;;;;18.13;12.52;;;9.80;95.80;;;;;;5036607;28;20036;-67
2021/08/25 03:12:58;;;;;;;17.05;11.80;;;9.80;95.70;;;;;;5024653;28;20059;-67
2021/08/25 03:15:24;;;;;;;31.38;14.82;;;9.90;95.70;;;;;;5038448;28;20091;-67
2021/08/25 03:17:49;;;;;;;19.55;12.98;;;9.90;95.60;;;;;;5029421;28;20030;-67
2021/08/25 03:20:15;;;;;;;19.92;12.32;;;9.90;95.60;;;;;;5034350;28;20036;-67
2021/08/25 03:22:41;;;;;;;16.77;11.00;;;9.80;95.30;;;;;;5030856;28;20048;-67
2021/08/25 03:25:08;;;;;;;19.02;11.07;;;9.80;94.90;;;;;;5042839;28;20082;-67
2021/08/25 03:27:35;;;;;;;17.02;10.63;;;9.90;94.60;;;;;;5031220;28;20469;-67
2021/08/25 03:30:00;;;;;;;19.35;12.23;;;9.90;94.60;;;;;;5029818;28;20058;-67
2021/08/25 03:32:26;;;;;;;18.20;10.45;;;10.00;94.70;;;;;;5029388;28;20084;-67
2021/08/25 03:34:52;;;;;;;21.35;11.43;;;10.00;94.70;;;;;;5034013;28;20193;-67
2021/08/25 03:37:18;;;;;;;25.35;13.85;;;10.00;94.60;;;;;;5023592;28;20796;-67
2021/08/25 03:39:44;;;;;;;34.97;18.00;;;10.10;94.60;;;;;;5031130;28;20108;-67
2021/08/25 03:42:09;;;;;;;39.28;18.30;;;10.10;95.10;;;;;;5032574;28;20432;-67
2021/08/25 03:44:36;;;;;;;56.22;21.75;;;10.10;95.00;;;;;;5036145;28;20155;-67
2021/08/25 03:47:03;;;;;;;67.03;24.95;;;10.30;95.20;;;;;;5034818;28;20025;-67
2021/08/25 03:49:29;;;;;;;59.42;21.77;;;10.30;95.60;;;;;;5042021;28;20079;-67
2021/08/25 03:51:54;;;;;;;92.28;21.85;;;10.30;95.70;;;;;;5033393;28;20048;-67
2021/08/25 03:54:20;;;;;;;80.72;20.25;;;10.30;95.90;;;;;;5036083;28;20130;-67
2021/08/25 03:56:45;;;;;;;53.85;18.85;;;10.30;96.00;;;;;;5028090;28;20785;-67
2021/08/25 03:59:12;;;;;;;74.93;18.25;;;10.30;96.10;;;;;;5035151;28;20283;-67
2021/08/25 04:01:37;;;;;;;77.38;19.63;;;10.40;96.20;;;;;;5034517;28;20113;-67
2021/08/25 04:04:06;;;;;;;51.50;17.67;;;10.40;96.20;;;;;;5030004;28;20600;-67
2021/08/25 04:06:32;;;;;;;45.53;17.25;;;10.40;96.20;;;;;;5023149;28;20856;-67
2021/08/25 04:08:58;;;;;;;68.38;17.95;;;10.40;96.20;;;;;;5040562;28;20422;-68
2021/08/25 04:11:23;;;;;;;62.53;18.48;;;10.50;96.30;;;;;;5028450;28;20068;-68
2021/08/25 04:13:49;;;;;;;76.38;16.02;;;10.50;96.30;;;;;;5036545;28;20185;-67
2021/08/25 04:16:14;;;;;;;59.20;17.30;;;10.50;96.20;;;;;;5035509;28;20083;-68
2021/08/25 04:18:40;;;;;;;84.28;17.15;;;10.50;96.30;;;;;;5038622;28;20443;-67
2021/08/25 04:21:06;;;;;;;71.28;17.27;;;10.40;96.30;;;;;;5026001;28;20025;-64
2021/08/25 04:23:31;;;;;;;63.50;16.20;;;10.40;96.40;;;;;;5030997;28;20161;-63
2021/08/25 04:25:57;;;;;;;67.53;15.77;;;10.30;96.40;;;;;;5038836;28;20044;-65
2021/08/25 04:28:22;;;;;;;53.38;16.55;;;10.40;96.60;;;;;;5021808;28;20037;-64
2021/08/25 04:30:48;;;;;;;53.47;17.25;;;10.40;96.70;;;;;;5026746;28;20028;-65
2021/08/25 04:33:14;;;;;;;72.05;16.42;;;10.40;96.80;;;;;;5031710;28;20025;-65
2021/08/25 04:35:39;;;;;;;71.40;17.65;;;10.50;96.80;;;;;;5035143;28;20468;-65
2021/08/25 04:38:05;;;;;;;63.33;18.13;;;10.50;96.80;;;;;;5031794;28;22044;-65
2021/08/25 04:40:31;;;;;;;46.70;16.52;;;10.50;96.80;;;;;;5025349;28;20593;-66
2021/08/25 04:42:57;;;;;;;65.90;17.13;;;10.50;96.80;;;;;;5028360;28;20034;-65
2021/08/25 04:45:22;;;;;;;48.80;17.85;;;10.50;96.90;;;;;;5027688;28;20036;-65
2021/08/25 04:47:48;;;;;;;52.78;17.92;;;10.60;96.90;;;;;;5024483;28;20045;-65
2021/08/25 04:50:14;;;;;;;59.85;19.38;;;10.60;96.80;;;;;;5031796;28;20021;-65
2021/08/25 04:52:40;;;;;;;42.38;17.10;;;10.60;96.80;;;;;;5027772;28;20038;-65
2021/08/25 04:55:07;;;;;;;33.33;14.98;;;10.60;96.90;;;;;;5036254;28;20025;-66
2021/08/25 04:57:32;;;;;;;25.08;14.57;;;10.60;96.80;;;;;;5031260;28;20069;-66
2021/08/25 04:59:58;;;;;;;41.13;14.73;;;10.50;96.90;;;;;;5031250;28;20060;-66
2021/08/25 05:02:23;;;;;;;36.90;15.40;;;10.50;97.00;;;;;;5029278;28;20028;-66
2021/08/25 05:04:49;;;;;;;52.50;14.60;;;10.50;97.00;;;;;;5038542;28;20092;-65
2021/08/25 05:07:15;;;;;;;33.17;14.90;;;10.50;97.00;;;;;;5028885;28;20164;-66
2021/08/25 05:09:41;;;;;;;44.83;14.80;;;10.60;97.10;;;;;;5034725;28;20101;-66
2021/08/25 05:12:07;;;;;;;32.83;14.45;;;10.60;97.00;;;;;;5031822;28;20072;-65
2021/08/25 05:14:34;;;;;;;24.35;13.50;;;10.70;96.90;;;;;;5031223;28;20075;-66
2021/08/25 05:17:01;;;;;;;32.30;12.85;;;10.70;96.90;;;;;;5032670;28;20518;-66
2021/08/25 05:19:27;;;;;;;23.13;11.93;;;10.70;96.60;;;;;;5035943;28;20241;-66
2021/08/25 05:21:52;;;;;;;30.42;12.10;;;10.70;96.50;;;;;;5031994;28;20633;-67
2021/08/25 05:24:18;;;;;;;34.05;12.02;;;10.60;96.40;;;;;;5033028;28;20037;-66
2021/08/25 05:26:43;;;;;;;23.10;11.80;;;10.60;96.30;;;;;;5032949;28;20455;-66
2021/08/25 05:29:09;;;;;;;33.67;11.13;;;10.60;96.30;;;;;;5042320;28;20123;-66
2021/08/25 05:31:35;;;;;;;19.35;11.10;;;10.70;96.40;;;;;;5037411;28;20047;-65
2021/08/25 05:34:00;;;;;;;27.10;12.82;;;10.70;96.20;;;;;;5032150;28;20124;-66
2021/08/25 05:36:26;;;;;;;29.00;10.68;;;10.80;96.30;;;;;;5033263;28;20025;-66
2021/08/25 05:38:51;;;;;;;27.75;11.20;;;10.80;96.10;;;;;;5030594;28;20368;-66
2021/08/25 05:41:17;;;;;;;27.45;11.70;;;10.80;96.10;;;;;;5031478;28;20540;-66
2021/08/25 05:43:43;;;;;;;24.05;11.50;;;10.90;96.20;;;;;;5031230;28;20028;-66
2021/08/25 05:46:08;;;;;;;42.55;11.98;;;11.00;96.20;;;;;;5031322;28;20020;-66
2021/08/25 05:48:34;;;;;;;30.23;10.18;;;11.00;96.10;;;;;;5035341;28;20112;-66
2021/08/25 05:51:00;;;;;;;23.30;10.85;;;10.90;96.20;;;;;;5026895;28;20473;-66
2021/08/25 05:53:25;;;;;;;30.98;10.85;;;11.00;96.20;;;;;;5028013;28;20036;-66
2021/08/25 05:55:51;;;;;;;20.73;10.63;;;11.10;96.00;;;;;;5031866;28;20124;-66
2021/08/25 05:58:17;;;;;;;20.00;9.57;;;11.20;95.90;;;;;;5025001;28;20060;-66
2021/08/25 06:00:43;;;;;;;23.42;9.45;;;11.30;95.80;;;;;;5027094;28;20053;-66
2021/08/25 06:03:08;;;;;;;27.83;9.95;;;11.30;95.70;;;;;;5025748;28;20433;-66
2021/08/25 06:05:35;;;;;;;16.70;9.35;;;11.30;95.80;;;;;;5040950;28;20021;-66
2021/08/25 06:08:01;;;;;;;17.25;9.65;;;11.40;95.70;;;;;;5029151;28;20562;-66
2021/08/25 06:10:26;;;;;;;15.32;10.70;;;11.50;95.60;;;;;;5037032;28;20163;-66
2021/08/25 06:12:52;;;;;;;24.42;9.75;;;11.50;95.60;;;;;;5038976;28;20029;-66
2021/08/25 06:15:18;;;;;;;25.73;10.05;;;11.50;96.00;;;;;;5041167;28;20025;-66
2021/08/25 06:17:44;;;;;;;17.95;10.32;;;11.60;96.00;;;;;;5032590;28;20028;-66
2021/08/25 06:20:11;;;;;;;17.70;10.77;;;11.80;95.90;;;;;;5038766;28;20029;-66
2021/08/25 06:22:36;;;;;;;16.17;9.27;;;12.00;95.90;;;;;;5032658;28;20028;-67
2021/08/25 06:25:02;;;;;;;15.90;9.80;;;12.10;95.60;;;;;;5040658;28;20029;-66
2021/08/25 06:27:28;;;;;;;16.73;10.00;;;12.30;95.50;;;;;;5032616;28;20029;-66
2021/08/25 06:29:54;;;;;;;22.80;10.00;;;12.50;95.70;;;;;;5035720;28;20105;-66
2021/08/25 06:32:19;;;;;;;16.80;10.35;;;12.60;96.00;;;;;;5030539;28;20231;-66
2021/08/25 06:34:45;;;;;;;13.85;10.00;;;12.70;96.10;;;;;;5039592;28;20028;-66
2021/08/25 06:37:11;;;;;;;22.25;10.75;;;12.90;96.20;;;;;;5031567;28;20018;-67
2021/08/25 06:39:36;;;;;;;13.95;9.73;;;13.00;96.20;;;;;;5032958;28;20033;-66
2021/08/25 06:42:02;;;;;;;13.95;10.30;;;13.10;96.20;;;;;;5020065;28;20017;-66
2021/08/25 06:44:28;;;;;;;15.95;10.55;;;13.20;96.00;;;;;;5028033;28;20036;-66
2021/08/25 06:46:54;;;;;;;13.30;9.98;;;13.50;96.20;;;;;;5036173;28;20605;-67
2021/08/25 06:49:19;;;;;;;17.40;9.18;;;13.60;95.70;;;;;;5029276;28;20071;-67
2021/08/25 06:51:45;;;;;;;14.57;8.63;;;13.60;95.10;;;;;;5036173;28;20037;-67
2021/08/25 06:54:10;;;;;;;9.55;7.65;;;13.60;95.10;;;;;;5031727;28;20212;-66
2021/08/25 06:56:36;;;;;;;14.35;8.95;;;13.80;94.60;;;;;;5042292;28;20101;-66
2021/08/25 06:59:02;;;;;;;16.08;8.70;;;14.00;94.60;;;;;;5027608;28;20835;-67
2021/08/25 07:01:27;;;;;;;14.50;8.65;;;14.00;94.20;;;;;;5035707;28;20089;-67
2021/08/25 07:03:53;;;;;;;14.68;9.75;;;14.10;94.50;;;;;;5033805;28;20046;-66
2021/08/25 07:06:19;;;;;;;12.77;8.93;;;14.10;94.60;;;;;;5043016;28;20033;-67
2021/08/25 07:08:45;;;;;;;15.48;9.00;;;14.20;94.70;;;;;;5034361;28;20055;-67
2021/08/25 07:11:11;;;;;;;19.55;9.75;;;14.40;94.70;;;;;;5029080;28;20036;-67
2021/08/25 07:13:37;;;;;;;16.17;9.23;;;14.50;94.60;;;;;;5041283;28;20025;-66
2021/08/25 07:16:02;;;;;;;14.20;9.23;;;14.70;94.60;;;;;;5039769;28;20076;-67
2021/08/25 07:18:28;;;;;;;14.65;8.82;;;14.90;94.50;;;;;;5038314;28;20672;-67
2021/08/25 07:20:54;;;;;;;14.52;9.07;;;15.00;94.40;;;;;;5033338;28;20444;-67
2021/08/25 07:23:19;;;;;;;16.63;9.45;;;15.00;94.30;;;;;;5031754;28;20036;-67
2021/08/25 07:25:45;;;;;;;15.38;8.90;;;15.20;93.70;;;;;;5041369;28;20388;-67
2021/08/25 07:28:11;;;;;;;16.33;9.65;;;15.10;93.90;;;;;;5035788;28;20054;-67
2021/08/25 07:30:37;;;;;;;14.90;9.18;;;15.30;93.90;;;;;;5037391;28;20029;-67
2021/08/25 07:33:03;;;;;;;11.30;8.80;;;15.40;93.80;;;;;;5028673;28;20033;-67
2021/08/25 07:35:29;;;;;;;13.60;9.05;;;15.50;93.70;;;;;;5037740;28;20540;-67
2021/08/25 07:37:57;;;;;;;15.27;9.07;;;15.70;93.00;;;;;;5042501;28;20395;-67
2021/08/25 07:40:23;;;;;;;13.38;9.07;;;15.80;93.00;;;;;;5043280;28;20552;-67
2021/08/25 07:42:48;;;;;;;17.00;9.68;;;15.90;92.80;;;;;;5043044;28;20098;-67
2021/08/25 07:45:14;;;;;;;14.68;9.50;;;16.00;92.20;;;;;;5040835;28;20025;-66
2021/08/25 07:47:40;;;;;;;14.32;8.90;;;16.20;92.30;;;;;;5036787;28;20144;-66
2021/08/25 07:50:06;;;;;;;16.42;9.65;;;16.10;91.50;;;;;;5042982;28;20070;-66
2021/08/25 07:52:32;;;;;;;16.42;8.80;;;16.00;91.80;;;;;;5037117;28;20361;-67
2021/08/25 07:54:58;;;;;;;18.05;9.30;;;16.00;92.30;;;;;;5034740;28;20087;-67
2021/08/25 07:57:23;;;;;;;14.18;9.20;;;16.00;91.90;;;;;;5036302;28;21114;-67
2021/08/25 07:59:49;;;;;;;16.20;9.27;;;16.30;91.60;;;;;;5035800;28;20113;-66
2021/08/25 08:02:14;;;;;;;14.52;9.10;;;16.50;90.80;;;;;;5023294;28;20021;-67
2021/08/25 08:04:40;;;;;;;20.08;9.57;;;16.50;89.80;;;;;;5038654;28;20036;-67
2021/08/25 08:07:06;;;;;;;15.38;8.32;;;16.70;90.00;;;;;;5039956;28;20044;-66
2021/08/25 08:09:31;;;;;;;13.40;8.57;;;17.00;88.20;;;;;;5036841;28;20040;-67
2021/08/25 08:11:57;;;;;;;13.20;7.40;;;17.00;87.30;;;;;;5042611;28;20029;-67
2021/08/25 08:14:22;;;;;;;13.23;7.47;;;17.40;86.80;;;;;;5037142;28;20077;-67
2021/08/25 08:16:52;;;;;;;11.93;6.72;;;17.50;86.10;;;;;;5041495;28;20056;-67
2021/08/25 08:19:23;;;;;;;12.93;6.18;;;17.30;85.50;;;;;;5036477;28;20029;-67
2021/08/25 08:21:49;;;;;;;11.50;5.80;;;17.50;86.10;;;;;;5027285;28;20428;-67
2021/08/25 08:24:16;;;;;;;10.50;5.57;;;17.50;84.70;;;;;;5036472;28;20100;-67
2021/08/25 08:26:42;;;;;;;7.30;4.57;;;17.60;85.00;;;;;;5043216;28;20025;-66
2021/08/25 08:29:08;;;;;;;9.00;3.70;;;17.60;84.70;;;;;;5030076;28;20033;-67
2021/08/25 08:31:34;;;;;;;10.00;4.50;;;17.80;82.70;;;;;;5036373;28;20036;-66
2021/08/25 08:33:59;;;;;;;9.68;4.38;;;17.90;83.00;;;;;;5030673;28;20506;-66
2021/08/25 08:36:26;;;;;;;6.00;3.45;;;18.20;82.30;;;;;;5040573;28;20029;-67
2021/08/25 08:38:52;;;;;;;6.75;3.38;;;18.10;81.60;;;;;;5037656;28;20488;-67
2021/08/25 08:41:17;;;;;;;6.72;2.60;;;18.00;82.10;;;;;;5040780;28;20140;-67
2021/08/25 08:43:48;;;;;;;7.43;2.67;;;17.80;81.10;;;;;;5037581;28;20421;-66
2021/08/25 08:46:15;;;;;;;5.07;2.20;;;18.30;80.40;;;;;;5036761;28;20458;-67
2021/08/25 08:48:41;;;;;;;4.20;2.00;;;18.30;80.30;;;;;;5035946;28;20130;-67
2021/08/25 08:51:10;;;;;;;4.35;1.70;;;18.40;79.70;;;;;;5038412;28;20469;-67
2021/08/25 08:53:36;;;;;;;5.60;1.77;;;18.40;78.80;;;;;;5029387;28;20239;-67
2021/08/25 08:56:02;;;;;;;6.72;1.65;;;18.50;76.40;;;;;;5036123;28;20668;-67
2021/08/25 08:58:28;;;;;;;4.35;1.50;;;18.90;76.10;;;;;;5036685;28;20143;-66
2021/08/25 09:00:53;;;;;;;4.40;1.60;;;18.60;77.90;;;;;;5036721;28;20104;-67
2021/08/25 09:03:20;;;;;;;4.00;1.60;;;18.40;77.20;;;;;;5036306;28;20177;-67
2021/08/25 09:05:52;;;;;;;3.28;1.50;;;18.50;77.50;;;;;;5041659;28;20029;-67
2021/08/25 09:08:22;;;;;;;4.32;1.58;;;18.80;76.20;;;;;;5035426;28;20108;-67
2021/08/25 09:10:58;;;;;;;4.57;1.67;;;19.20;75.30;;;;;;5039594;28;20537;-67
2021/08/25 09:13:48;;;;;;;5.75;2.00;;;19.10;75.40;;;;;;5032970;28;20068;-67
2021/08/25 09:16:31;;;;;;;3.78;1.35;;;19.00;74.90;;;;;;5035503;28;20017;-66
2021/08/25 09:19:14;;;;;;;2.45;1.00;;;19.40;73.30;;;;;;5030442;28;20026;-66
2021/08/25 09:21:47;;;;;;;4.03;1.10;;;19.80;70.80;;;;;;5032099;28;20025;-67
2021/08/25 09:24:14;;;;;;;4.32;1.10;;;19.90;70.90;;;;;;5040147;28;20031;-67
2021/08/25 09:27:06;;;;;;;2.92;0.85;;;19.40;70.90;;;;;;5021393;28;20026;-67
2021/08/25 09:29:32;;;;;;;1.92;0.80;;;19.10;70.60;;;;;;5039420;28;20045;-67
2021/08/25 09:31:57;;;;;;;1.85;0.90;;;19.20;70.10;;;;;;5030867;28;20467;-66
2021/08/25 09:34:31;;;;;;;1.88;0.80;;;18.80;71.00;;;;;;5041526;28;20453;-66
2021/08/25 09:37:10;;;;;;;2.83;0.80;;;18.60;72.10;;;;;;5040588;28;20033;-67
2021/08/25 09:39:58;;;;;;;2.92;1.20;;;18.70;73.30;;;;;;5032900;28;20037;-66
2021/08/25 09:42:24;;;;;;;2.35;0.90;;;19.20;72.10;;;;;;5029303;28;20290;-67
2021/08/25 09:45:06;;;;;;;2.17;0.90;;;19.50;71.90;;;;;;5041009;28;20401;-66
2021/08/25 09:47:50;;;;;;;1.02;0.70;;;19.80;68.40;;;;;;5037911;28;20142;-67
2021/08/25 09:50:18;;;;;;;2.22;0.75;;;20.10;68.70;;;;;;5027231;28;20132;-67
2021/08/25 09:52:44;;;;;;;1.83;0.70;;;19.90;68.20;;;;;;5028609;28;20503;-66
2021/08/25 09:55:12;;;;;;;1.88;0.93;;;19.80;67.20;;;;;;5036286;28;20034;-67
2021/08/25 09:57:39;;;;;;;1.13;0.70;;;19.70;68.70;;;;;;5036998;28;20464;-66
2021/08/25 10:00:07;;;;;;;2.90;0.85;;;19.50;69.00;;;;;;5035322;28;20439;-67
2021/08/25 10:02:34;;;;;;;3.72;0.70;;;19.80;68.50;;;;;;5023986;28;20096;-67
2021/08/25 10:05:00;;;;;;;1.30;0.70;;;19.70;69.00;;;;;;5033851;28;20029;-67
2021/08/25 10:07:26;;;;;;;1.60;0.82;;;19.30;69.80;;;;;;5029572;28;20087;-66
2021/08/25 10:09:53;;;;;;;2.97;0.70;;;19.20;70.30;;;;;;5036871;28;20032;-66
2021/08/25 10:12:19;;;;;;;2.15;0.45;;;19.10;68.90;;;;;;5030449;28;20049;-66
2021/08/25 10:14:45;;;;;;;3.33;0.80;;;19.60;67.90;;;;;;5025566;28;20096;-65
2021/08/25 10:17:38;;;;;;;1.85;0.75;;;19.70;68.00;;;;;;5027699;28;20077;-66
2021/08/25 10:20:25;;;;;;;3.97;0.80;;;19.70;68.70;;;;;;5022316;28;20392;-66
2021/08/25 10:22:53;;;;;;;2.55;0.80;;;19.50;68.50;;;;;;5025093;28;20113;-66
2021/08/25 10:25:19;;;;;;;1.98;0.75;;;19.50;68.70;;;;;;5039052;28;20045;-65
2021/08/25 10:28:03;;;;;;;1.77;0.90;;;19.40;70.20;;;;;;5028056;28;20017;-66
2021/08/25 10:30:29;;;;;;;2.65;0.77;;;19.40;71.00;;;;;;5032091;28;20171;-66
2021/08/25 10:32:55;;;;;;;3.40;0.82;;;19.10;71.50;;;;;;5034079;28;20091;-65
2021/08/25 10:35:29;;;;;;;2.63;0.77;;;19.10;72.40;;;;;;5025815;28;20396;-66
2021/08/25 10:38:17;;;;;;;1.33;0.65;;;18.90;73.00;;;;;;5023424;28;20345;-66
2021/08/25 10:40:43;;;;;;;1.67;0.63;;;18.90;73.70;;;;;;5038478;28;20261;-65
2021/08/25 10:43:08;;;;;;;3.22;0.88;;;18.90;72.10;;;;;;5038201;28;20704;-65
2021/08/25 10:45:46;;;;;;;1.90;0.77;;;19.50;71.10;;;;;;5042289;28;20039;-65
2021/08/25 10:48:13;;;;;;;2.25;0.80;;;19.80;70.00;;;;;;5037833;28;20025;-66
2021/08/25 10:50:56;;;;;;;3.72;1.00;;;20.30;69.00;;;;;;5031585;28;20030;-66
2021/08/25 10:53:28;;;;;;;2.80;0.70;;;20.50;67.20;;;;;;5039212;28;20436;-65
2021/08/25 10:56:15;;;;;;;4.72;0.77;;;20.20;68.00;;;;;;5039100;28;20483;-65
2021/08/25 10:58:48;;;;;;;3.08;0.88;;;19.90;68.40;;;;;;5035483;28;20022;-66
2021/08/25 11:01:29;;;;;;;1.60;0.82;;;19.90;68.40;;;;;;5036396;28;20197;-66
2021/08/25 11:04:00;;;;;;;1.45;0.63;;;19.80;68.00;;;;;;5029207;28;20405;-65
2021/08/25 11:06:34;;;;;;;1.33;0.57;;;19.60;68.70;;;;;;5024994;28;20099;-66
2021/08/25 11:09:09;;;;;;;1.20;0.45;;;19.40;69.10;;;;;;5022168;28;20372;-65
2021/08/25 11:11:35;;;;;;;2.25;0.50;;;19.30;70.10;;;;;;5034900;28;20180;-65
2021/08/25 11:14:00;;;;;;;1.75;0.50;;;19.20;70.20;;;;;;5039364;28;20021;-66
2021/08/25 11:16:26;;;;;;;1.88;0.50;;;19.40;70.40;;;;;;5026935;28;20378;-66
2021/08/25 11:18:52;;;;;;;1.00;0.50;;;19.60;69.60;;;;;;5033522;28;20025;-66
2021/08/25 11:21:17;;;;;;;1.00;0.52;;;19.40;70.00;;;;;;5028767;28;20030;-66
2021/08/25 11:23:53;;;;;;;2.45;0.80;;;19.20;71.50;;;;;;5032483;28;20031;-67
2021/08/25 11:26:19;;;;;;;3.15;0.70;;;19.00;72.10;;;;;;5038464;28;20112;-66
2021/08/25 11:28:45;;;;;;;2.35;0.75;;;18.60;73.30;;;;;;5035058;28;20128;-66
2021/08/25 11:31:10;;;;;;;2.28;0.70;;;18.40;74.20;;;;;;5040163;28;20084;-66
2021/08/25 11:33:46;;;;;;;2.60;0.73;;;18.30;75.10;;;;;;5027219;28;20184;-67
2021/08/25 11:36:12;;;;;;;2.20;0.80;;;18.20;75.90;;;;;;5039617;28;20115;-66
2021/08/25 11:38:37;;;;;;;1.90;0.80;;;17.90;76.40;;;;;;5028935;28;20500;-67
2021/08/25 11:41:03;;;;;;;2.00;0.52;;;18.00;76.60;;;;;;5026849;28;20029;-67
2021/08/25 11:43:29;;;;;;;4.03;0.73;;;17.90;77.00;;;;;;5027750;28;20516;-66
2021/08/25 11:45:56;;;;;;;1.63;0.60;;;18.00;77.00;;;;;;5023507;28;20048;-66
2021/08/25 11:48:26;;;;;;;1.13;0.55;;;17.90;76.60;;;;;;5030665;28;20047;-67
2021/08/25 11:50:52;;;;;;;2.72;0.88;;;17.90;76.70;;;;;;5032428;28;20020;-66
2021/08/25 11:53:20;;;;;;;1.67;0.50;;;17.90;76.80;;;;;;5037347;28;20029;-67
2021/08/25 11:55:48;;;;;;;1.88;0.40;;;17.90;77.40;;;;;;5044024;28;20080;-66
2021/08/25 11:58:24;;;;;;;2.55;0.50;;;17.80;78.00;;;;;;5031656;28;20100;-66
2021/08/25 12:00:50;;;;;;;3.45;0.80;;;17.80;78.60;;;;;;5036551;28;20051;-66
2021/08/25 12:03:16;;;;;;;1.90;0.60;;;17.70;78.80;;;;;;5033537;28;20021;-66
2021/08/25 12:05:53;;;;;;;4.13;0.90;;;17.60;78.90;;;;;;5043518;28;20029;-67
2021/08/25 12:08:19;;;;;;;2.38;0.70;;;17.60;78.80;;;;;;5037943;28;20033;-66
2021/08/25 12:11:04;;;;;;;3.30;0.75;;;17.50;78.50;;;;;;5040888;28;20207;-66
2021/08/25 12:13:44;;;;;;;2.00;0.80;;;17.60;78.20;;;;;;5039201;28;20025;-67
2021/08/25 12:16:27;;;;;;;1.85;0.65;;;17.80;78.30;;;;;;5030903;28;20576;-66
2021/08/25 12:19:00;;;;;;;1.63;0.60;;;18.00;77.70;;;;;;5039663;28;20048;-66
2021/08/25 12:21:28;;;;;;;2.05;0.57;;;17.90;77.30;;;;;;5035713;28;20040;-66
2021/08/25 12:23:59;;;;;;;1.83;0.90;;;18.00;77.40;;;;;;5038257;28;20349;-67
2021/08/25 12:26:25;;;;;;;1.20;0.50;;;18.20;76.10;;;;;;5043601;28;20068;-67
2021/08/25 12:28:51;;;;;;;3.58;0.85;;;18.60;74.70;;;;;;5029984;28;20095;-66
2021/08/25 12:31:19;;;;;;;3.25;0.68;;;18.80;73.40;;;;;;5025742;28;20064;-66
2021/08/25 12:33:51;;;;;;;2.05;0.70;;;19.00;71.70;;;;;;5025296;28;20131;-65
2021/08/25 12:36:24;;;;;;;2.60;0.40;;;19.50;71.30;;;;;;5027747;28;20036;-67
2021/08/25 12:38:56;;;;;;;1.80;0.52;;;19.50;69.80;;;;;;5032930;28;20076;-67
2021/08/25 12:41:24;;;;;;;2.28;0.80;;;19.40;70.20;;;;;;5037519;28;20105;-66
2021/08/25 12:43:51;;;;;;;1.30;0.50;;;19.20;70.90;;;;;;5038192;28;20025;-67